Time;durP1;ratioP1;P1;durP2;ratioP2;P2;SDS_P1;SDS_P2;PMS_P1;PMS_P2;Temp;Humidity;BMP_temperature;BMP_pressure;BME280_temperature;BME280_humidity;BME280_pressure;Samples;Min_cycle;Max_cycle;Signal;HPM_P1;HPM_P2
2021/11/15 00:00:36;;;;;;;41.9;21.85;;;;;;;5.19;100;95584.2;;;;
2021/11/15 00:01:43;;;;;;;41.9;21.85;;;;;;;5.19;100;95584.2;;;;
2021/11/15 00:02:45;;;;;;;41.9;21.85;;;;;;;5.19;100;95584.2;;;;
2021/11/15 00:03:48;;;;;;;41.9;21.85;;;;;;;5.19;100;95584.2;;;;
2021/11/15 00:04:48;;;;;;;41.9;21.85;;;;;;;5.19;100;95584.2;;;;
2021/11/15 00:05:50;;;;;;;41.9;21.85;;;;;;;5.19;100;95584.2;;;;
2021/11/15 00:06:51;;;;;;;41.9;21.85;;;;;;;5.19;100;95584.2;;;;
2021/11/15 00:07:52;;;;;;;41.2;22.25;;;;;;;5.11;100;95583.83;;;;
2021/11/15 00:08:52;;;;;;;41.2;22.25;;;;;;;5.11;100;95583.83;;;;
2021/11/15 00:09:53;;;;;;;41.2;22.25;;;;;;;5.11;100;95583.83;;;;
2021/11/15 00:10:53;;;;;;;41.2;22.25;;;;;;;5.11;100;95583.83;;;;
2021/11/15 00:11:54;;;;;;;41.2;22.25;;;;;;;5.11;100;95583.83;;;;
2021/11/15 00:12:55;;;;;;;41.2;22.25;;;;;;;5.11;100;95583.83;;;;
2021/11/15 00:13:55;;;;;;;41.2;22.25;;;;;;;5.11;100;95583.83;;;;
2021/11/15 00:14:56;;;;;;;41.2;22.25;;;;;;;5.11;100;95583.83;;;;
2021/11/15 00:15:57;;;;;;;41.2;22.25;;;;;;;5.11;100;95583.83;;;;
2021/11/15 00:16:58;;;;;;;41.2;22.25;;;;;;;5.11;100;95583.83;;;;
2021/11/15 00:17:58;;;;;;;41.2;22.25;;;;;;;5.11;100;95583.83;;;;
2021/11/15 00:19:00;;;;;;;42.59999;20.65;;;;;;;5.04;100;95593.66;;;;
2021/11/15 00:20:00;;;;;;;42.59999;20.65;;;;;;;5.04;100;95593.66;;;;
2021/11/15 00:21:01;;;;;;;42.59999;20.65;;;;;;;5.04;100;95593.66;;;;
2021/11/15 00:22:03;;;;;;;42.59999;20.65;;;;;;;5.04;100;95593.66;;;;
2021/11/15 00:23:04;;;;;;;42.59999;20.65;;;;;;;5.04;100;95593.66;;;;
2021/11/15 00:24:06;;;;;;;42.59999;20.65;;;;;;;5.04;100;95593.66;;;;
2021/11/15 00:25:07;;;;;;;42.59999;20.65;;;;;;;5.04;100;95593.66;;;;
2021/11/15 00:26:09;;;;;;;42.59999;20.65;;;;;;;5.04;100;95593.66;;;;
2021/11/15 00:27:10;;;;;;;42.59999;20.65;;;;;;;5.04;100;95593.66;;;;
2021/11/15 00:28:10;;;;;;;42.59999;20.65;;;;;;;5.04;100;95593.66;;;;
2021/11/15 00:29:11;;;;;;;36.9;18.85;;;;;;;4.98;100;95591.37;;;;
2021/11/15 00:30:12;;;;;;;36.9;18.85;;;;;;;4.98;100;95591.37;;;;
2021/11/15 00:31:14;;;;;;;36.9;18.85;;;;;;;4.98;100;95591.37;;;;
2021/11/15 00:32:15;;;;;;;36.9;18.85;;;;;;;4.98;100;95591.37;;;;
2021/11/15 00:33:16;;;;;;;36.9;18.85;;;;;;;4.98;100;95591.37;;;;
2021/11/15 00:34:16;;;;;;;36.9;18.85;;;;;;;4.98;100;95591.37;;;;
2021/11/15 00:35:17;;;;;;;36.9;18.85;;;;;;;4.98;100;95591.37;;;;
2021/11/15 00:36:18;;;;;;;36.9;18.85;;;;;;;4.98;100;95591.37;;;;
2021/11/15 00:37:20;;;;;;;36.9;18.85;;;;;;;4.98;100;95591.37;;;;
2021/11/15 00:38:21;;;;;;;36.9;18.85;;;;;;;4.98;100;95591.37;;;;
2021/11/15 00:39:22;;;;;;;36.9;18.85;;;;;;;4.98;100;95591.37;;;;
2021/11/15 00:40:22;;;;;;;37.65;18.8;;;;;;;4.92;100;95597.9;;;;
2021/11/15 00:41:23;;;;;;;37.65;18.8;;;;;;;4.92;100;95597.9;;;;
2021/11/15 00:42:23;;;;;;;37.65;18.8;;;;;;;4.92;100;95597.9;;;;
2021/11/15 00:43:24;;;;;;;37.65;18.8;;;;;;;4.92;100;95597.9;;;;
2021/11/15 00:44:25;;;;;;;37.65;18.8;;;;;;;4.92;100;95597.9;;;;
2021/11/15 00:45:26;;;;;;;37.65;18.8;;;;;;;4.92;100;95597.9;;;;
2021/11/15 00:46:26;;;;;;;37.65;18.8;;;;;;;4.92;100;95597.9;;;;
2021/11/15 00:47:27;;;;;;;37.65;18.8;;;;;;;4.92;100;95597.9;;;;
2021/11/15 00:48:27;;;;;;;37.65;18.8;;;;;;;4.92;100;95597.9;;;;
2021/11/15 00:49:28;;;;;;;37.65;18.8;;;;;;;4.92;100;95597.9;;;;
2021/11/15 00:50:29;;;;;;;33.25;17.15;;;;;;;4.88;100;95598.46;;;;
2021/11/15 00:51:30;;;;;;;33.25;17.15;;;;;;;4.88;100;95598.46;;;;
2021/11/15 00:52:30;;;;;;;33.25;17.15;;;;;;;4.88;100;95598.46;;;;
2021/11/15 00:53:31;;;;;;;33.25;17.15;;;;;;;4.88;100;95598.46;;;;
2021/11/15 00:54:34;;;;;;;33.25;17.15;;;;;;;4.88;100;95598.46;;;;
2021/11/15 00:55:35;;;;;;;33.25;17.15;;;;;;;4.88;100;95598.46;;;;
2021/11/15 00:56:35;;;;;;;33.25;17.15;;;;;;;4.88;100;95598.46;;;;
2021/11/15 00:57:36;;;;;;;33.25;17.15;;;;;;;4.88;100;95598.46;;;;
2021/11/15 00:58:36;;;;;;;33.25;17.15;;;;;;;4.88;100;95598.46;;;;
2021/11/15 00:59:37;;;;;;;33.25;17.15;;;;;;;4.88;100;95598.46;;;;
2021/11/15 01:00:38;;;;;;;33.25;17.15;;;;;;;4.88;100;95598.46;;;;
2021/11/15 01:01:39;;;;;;;33.85;18.05;;;;;;;4.91;100;95590.88;;;;
2021/11/15 01:02:40;;;;;;;33.85;18.05;;;;;;;4.91;100;95590.88;;;;
2021/11/15 01:03:40;;;;;;;33.85;18.05;;;;;;;4.91;100;95590.88;;;;
2021/11/15 01:04:41;;;;;;;33.85;18.05;;;;;;;4.91;100;95590.88;;;;
2021/11/15 01:05:47;;;;;;;33.85;18.05;;;;;;;4.91;100;95590.88;;;;
2021/11/15 01:06:48;;;;;;;33.85;18.05;;;;;;;4.91;100;95590.88;;;;
2021/11/15 01:07:48;;;;;;;33.85;18.05;;;;;;;4.91;100;95590.88;;;;
2021/11/15 01:08:49;;;;;;;33.85;18.05;;;;;;;4.91;100;95590.88;;;;
2021/11/15 01:09:49;;;;;;;33.85;18.05;;;;;;;4.91;100;95590.88;;;;
2021/11/15 01:10:52;;;;;;;33.85;18.05;;;;;;;4.91;100;95590.88;;;;
2021/11/15 01:11:53;;;;;;;38.05;19.95;;;;;;;4.94;100;95605.73;;;;
2021/11/15 01:12:55;;;;;;;38.05;19.95;;;;;;;4.94;100;95605.73;;;;
2021/11/15 01:13:56;;;;;;;38.05;19.95;;;;;;;4.94;100;95605.73;;;;
2021/11/15 01:14:57;;;;;;;38.05;19.95;;;;;;;4.94;100;95605.73;;;;
2021/11/15 01:15:58;;;;;;;38.05;19.95;;;;;;;4.94;100;95605.73;;;;
2021/11/15 01:16:59;;;;;;;38.05;19.95;;;;;;;4.94;100;95605.73;;;;
2021/11/15 01:18:00;;;;;;;38.05;19.95;;;;;;;4.94;100;95605.73;;;;
2021/11/15 01:19:01;;;;;;;38.05;19.95;;;;;;;4.94;100;95605.73;;;;
2021/11/15 01:20:02;;;;;;;38.05;19.95;;;;;;;4.94;100;95605.73;;;;
2021/11/15 01:21:06;;;;;;;38.05;19.95;;;;;;;4.94;100;95605.73;;;;
2021/11/15 01:22:06;;;;;;;38.05;19.95;;;;;;;4.94;100;95605.73;;;;
2021/11/15 01:23:07;;;;;;;36.65;19.8;;;;;;;4.9;100;95593.66;;;;
2021/11/15 01:24:09;;;;;;;36.65;19.8;;;;;;;4.9;100;95593.66;;;;
2021/11/15 01:25:10;;;;;;;36.65;19.8;;;;;;;4.9;100;95593.66;;;;
2021/11/15 01:26:11;;;;;;;36.65;19.8;;;;;;;4.9;100;95593.66;;;;
2021/11/15 01:27:13;;;;;;;36.65;19.8;;;;;;;4.9;100;95593.66;;;;
2021/11/15 01:28:13;;;;;;;36.65;19.8;;;;;;;4.9;100;95593.66;;;;
2021/11/15 01:29:14;;;;;;;36.65;19.8;;;;;;;4.9;100;95593.66;;;;
2021/11/15 01:30:14;;;;;;;36.65;19.8;;;;;;;4.9;100;95593.66;;;;
2021/11/15 01:31:18;;;;;;;36.65;19.8;;;;;;;4.9;100;95593.66;;;;
2021/11/15 01:32:19;;;;;;;36.65;19.8;;;;;;;4.9;100;95593.66;;;;
2021/11/15 01:33:20;;;;;;;39.1;19.05;;;;;;;4.84;100;95587.33;;;;
2021/11/15 01:34:21;;;;;;;39.1;19.05;;;;;;;4.84;100;95587.33;;;;
2021/11/15 01:35:21;;;;;;;39.1;19.05;;;;;;;4.84;100;95587.33;;;;
2021/11/15 01:36:24;;;;;;;39.1;19.05;;;;;;;4.84;100;95587.33;;;;
2021/11/15 01:37:24;;;;;;;39.1;19.05;;;;;;;4.84;100;95587.33;;;;
2021/11/15 01:38:25;;;;;;;39.1;19.05;;;;;;;4.84;100;95587.33;;;;
2021/11/15 01:39:26;;;;;;;39.1;19.05;;;;;;;4.84;100;95587.33;;;;
2021/11/15 01:40:27;;;;;;;39.1;19.05;;;;;;;4.84;100;95587.33;;;;
2021/11/15 01:41:30;;;;;;;39.1;19.05;;;;;;;4.84;100;95587.33;;;;
2021/11/15 01:42:30;;;;;;;39.1;19.05;;;;;;;4.84;100;95587.33;;;;
2021/11/15 01:43:31;;;;;;;39.1;19.05;;;;;;;4.84;100;95587.33;;;;
2021/11/15 01:44:32;;;;;;;34.65;18.25;;;;;;;4.83;100;95594.12;;;;
2021/11/15 01:45:32;;;;;;;34.65;18.25;;;;;;;4.83;100;95594.12;;;;
2021/11/15 01:46:35;;;;;;;34.65;18.25;;;;;;;4.83;100;95594.12;;;;
2021/11/15 01:47:36;;;;;;;34.65;18.25;;;;;;;4.83;100;95594.12;;;;
2021/11/15 01:48:37;;;;;;;34.65;18.25;;;;;;;4.83;100;95594.12;;;;
2021/11/15 01:49:38;;;;;;;34.65;18.25;;;;;;;4.83;100;95594.12;;;;
2021/11/15 01:50:39;;;;;;;34.65;18.25;;;;;;;4.83;100;95594.12;;;;
2021/11/15 01:51:41;;;;;;;34.65;18.25;;;;;;;4.83;100;95594.12;;;;
2021/11/15 01:52:42;;;;;;;34.65;18.25;;;;;;;4.83;100;95594.12;;;;
2021/11/15 01:53:43;;;;;;;34.65;18.25;;;;;;;4.83;100;95594.12;;;;
2021/11/15 01:54:44;;;;;;;39.7;20.55;;;;;;;4.75;100;95599.59;;;;
2021/11/15 01:55:45;;;;;;;39.7;20.55;;;;;;;4.75;100;95599.59;;;;
2021/11/15 01:56:46;;;;;;;39.7;20.55;;;;;;;4.75;100;95599.59;;;;
2021/11/15 01:57:48;;;;;;;39.7;20.55;;;;;;;4.75;100;95599.59;;;;
2021/11/15 01:58:51;;;;;;;39.7;20.55;;;;;;;4.75;100;95599.59;;;;
2021/11/15 01:59:52;;;;;;;39.7;20.55;;;;;;;4.75;100;95599.59;;;;
2021/11/15 02:00:52;;;;;;;39.7;20.55;;;;;;;4.75;100;95599.59;;;;
2021/11/15 02:01:56;;;;;;;39.7;20.55;;;;;;;4.75;100;95599.59;;;;
2021/11/15 02:02:56;;;;;;;39.7;20.55;;;;;;;4.75;100;95599.59;;;;
2021/11/15 02:03:57;;;;;;;39.7;20.55;;;;;;;4.75;100;95599.59;;;;
2021/11/15 02:04:58;;;;;;;39.7;20.55;;;;;;;4.75;100;95599.59;;;;
2021/11/15 02:05:59;;;;;;;37.3;19;;;;;;;4.66;100;95591.8;;;;
2021/11/15 02:07:00;;;;;;;37.3;19;;;;;;;4.66;100;95591.8;;;;
2021/11/15 02:08:01;;;;;;;37.3;19;;;;;;;4.66;100;95591.8;;;;
2021/11/15 02:09:02;;;;;;;37.3;19;;;;;;;4.66;100;95591.8;;;;
2021/11/15 02:10:04;;;;;;;37.3;19;;;;;;;4.66;100;95591.8;;;;
2021/11/15 02:11:08;;;;;;;37.3;19;;;;;;;4.66;100;95591.8;;;;
2021/11/15 02:12:09;;;;;;;37.3;19;;;;;;;4.66;100;95591.8;;;;
2021/11/15 02:13:10;;;;;;;37.3;19;;;;;;;4.66;100;95591.8;;;;
2021/11/15 02:14:13;;;;;;;37.3;19;;;;;;;4.66;100;95591.8;;;;
2021/11/15 02:15:14;;;;;;;37.3;19;;;;;;;4.66;100;95591.8;;;;
2021/11/15 02:16:15;;;;;;;40.2;18.75;;;;;;;4.71;100;95576.12;;;;
2021/11/15 02:17:16;;;;;;;40.2;18.75;;;;;;;4.71;100;95576.12;;;;
2021/11/15 02:18:17;;;;;;;40.2;18.75;;;;;;;4.71;100;95576.12;;;;
2021/11/15 02:19:19;;;;;;;40.2;18.75;;;;;;;4.71;100;95576.12;;;;
2021/11/15 02:20:20;;;;;;;40.2;18.75;;;;;;;4.71;100;95576.12;;;;
2021/11/15 02:21:22;;;;;;;40.2;18.75;;;;;;;4.71;100;95576.12;;;;
2021/11/15 02:22:23;;;;;;;40.2;18.75;;;;;;;4.71;100;95576.12;;;;
2021/11/15 02:23:24;;;;;;;40.2;18.75;;;;;;;4.71;100;95576.12;;;;
2021/11/15 02:24:27;;;;;;;40.2;18.75;;;;;;;4.71;100;95576.12;;;;
2021/11/15 02:25:27;;;;;;;40.2;18.75;;;;;;;4.71;100;95576.12;;;;
2021/11/15 02:26:28;;;;;;;32.95;17.6;;;;;;;4.71;100;95574.78;;;;
2021/11/15 02:27:28;;;;;;;32.95;17.6;;;;;;;4.71;100;95574.78;;;;
2021/11/15 02:28:29;;;;;;;32.95;17.6;;;;;;;4.71;100;95574.78;;;;
2021/11/15 02:29:32;;;;;;;32.95;17.6;;;;;;;4.71;100;95574.78;;;;
2021/11/15 02:30:32;;;;;;;32.95;17.6;;;;;;;4.71;100;95574.78;;;;
2021/11/15 02:31:33;;;;;;;32.95;17.6;;;;;;;4.71;100;95574.78;;;;
2021/11/15 02:32:33;;;;;;;32.95;17.6;;;;;;;4.71;100;95574.78;;;;
2021/11/15 02:33:34;;;;;;;32.95;17.6;;;;;;;4.71;100;95574.78;;;;
2021/11/15 02:34:35;;;;;;;32.95;17.6;;;;;;;4.71;100;95574.78;;;;
2021/11/15 02:35:36;;;;;;;32.95;17.6;;;;;;;4.71;100;95574.78;;;;
2021/11/15 02:36:38;;;;;;;32.95;17.6;;;;;;;4.71;100;95574.78;;;;
2021/11/15 02:37:39;;;;;;;36.8;17.75;;;;;;;4.69;100;95564.78;;;;
2021/11/15 02:38:40;;;;;;;36.8;17.75;;;;;;;4.69;100;95564.78;;;;
2021/11/15 02:39:41;;;;;;;36.8;17.75;;;;;;;4.69;100;95564.78;;;;
2021/11/15 02:40:41;;;;;;;36.8;17.75;;;;;;;4.69;100;95564.78;;;;
2021/11/15 02:41:42;;;;;;;36.8;17.75;;;;;;;4.69;100;95564.78;;;;
2021/11/15 02:42:43;;;;;;;36.8;17.75;;;;;;;4.69;100;95564.78;;;;
2021/11/15 02:43:45;;;;;;;36.8;17.75;;;;;;;4.69;100;95564.78;;;;
2021/11/15 02:44:46;;;;;;;36.8;17.75;;;;;;;4.69;100;95564.78;;;;
2021/11/15 02:45:46;;;;;;;36.8;17.75;;;;;;;4.69;100;95564.78;;;;
2021/11/15 02:46:48;;;;;;;36.8;17.75;;;;;;;4.69;100;95564.78;;;;
2021/11/15 02:47:50;;;;;;;34.4;15.95;;;;;;;4.68;100;95564.45;;;;
2021/11/15 02:48:52;;;;;;;34.4;15.95;;;;;;;4.68;100;95564.45;;;;
2021/11/15 02:49:53;;;;;;;34.4;15.95;;;;;;;4.68;100;95564.45;;;;
2021/11/15 02:50:54;;;;;;;34.4;15.95;;;;;;;4.68;100;95564.45;;;;
2021/11/15 02:51:55;;;;;;;34.4;15.95;;;;;;;4.68;100;95564.45;;;;
2021/11/15 02:52:55;;;;;;;34.4;15.95;;;;;;;4.68;100;95564.45;;;;
2021/11/15 02:53:58;;;;;;;34.4;15.95;;;;;;;4.68;100;95564.45;;;;
2021/11/15 02:54:59;;;;;;;34.4;15.95;;;;;;;4.68;100;95564.45;;;;
2021/11/15 02:56:00;;;;;;;34.4;15.95;;;;;;;4.68;100;95564.45;;;;
2021/11/15 02:57:02;;;;;;;34.4;15.95;;;;;;;4.68;100;95564.45;;;;
2021/11/15 02:58:04;;;;;;;34.4;15.95;;;;;;;4.68;100;95564.45;;;;
2021/11/15 02:59:07;;;;;;;34;16.65;;;;;;;4.69;100;95577.23;;;;
2021/11/15 03:00:08;;;;;;;34;16.65;;;;;;;4.69;100;95577.23;;;;
2021/11/15 03:01:20;;;;;;;34;16.65;;;;;;;4.69;100;95577.23;;;;
2021/11/15 03:02:22;;;;;;;34;16.65;;;;;;;4.69;100;95577.23;;;;
2021/11/15 03:03:24;;;;;;;34;16.65;;;;;;;4.69;100;95577.23;;;;
2021/11/15 03:04:25;;;;;;;34;16.65;;;;;;;4.69;100;95577.23;;;;
2021/11/15 03:05:26;;;;;;;34;16.65;;;;;;;4.69;100;95577.23;;;;
2021/11/15 03:06:30;;;;;;;34;16.65;;;;;;;4.69;100;95577.23;;;;
2021/11/15 03:07:30;;;;;;;34;16.65;;;;;;;4.69;100;95577.23;;;;
2021/11/15 03:08:31;;;;;;;34;16.65;;;;;;;4.69;100;95577.23;;;;
2021/11/15 03:09:31;;;;;;;35.4;16.35;;;;;;;4.68;100;95567.54;;;;
2021/11/15 03:10:32;;;;;;;35.4;16.35;;;;;;;4.68;100;95567.54;;;;
2021/11/15 03:11:34;;;;;;;35.4;16.35;;;;;;;4.68;100;95567.54;;;;
2021/11/15 03:12:35;;;;;;;35.4;16.35;;;;;;;4.68;100;95567.54;;;;
2021/11/15 03:13:35;;;;;;;35.4;16.35;;;;;;;4.68;100;95567.54;;;;
2021/11/15 03:14:42;;;;;;;35.4;16.35;;;;;;;4.68;100;95567.54;;;;
2021/11/15 03:15:43;;;;;;;35.4;16.35;;;;;;;4.68;100;95567.54;;;;
2021/11/15 03:16:45;;;;;;;35.4;16.35;;;;;;;4.68;100;95567.54;;;;
2021/11/15 03:17:46;;;;;;;35.4;16.35;;;;;;;4.68;100;95567.54;;;;
2021/11/15 03:18:52;;;;;;;35.4;16.35;;;;;;;4.68;100;95567.54;;;;
2021/11/15 03:19:53;;;;;;;35.95;16.8;;;;;;;4.64;100;95561.33;;;;
2021/11/15 03:20:53;;;;;;;35.95;16.8;;;;;;;4.64;100;95561.33;;;;
2021/11/15 03:21:56;;;;;;;35.95;16.8;;;;;;;4.64;100;95561.33;;;;
2021/11/15 03:22:57;;;;;;;35.95;16.8;;;;;;;4.64;100;95561.33;;;;
2021/11/15 03:23:58;;;;;;;35.95;16.8;;;;;;;4.64;100;95561.33;;;;
2021/11/15 03:24:58;;;;;;;35.95;16.8;;;;;;;4.64;100;95561.33;;;;
2021/11/15 03:25:59;;;;;;;35.95;16.8;;;;;;;4.64;100;95561.33;;;;
2021/11/15 03:27:00;;;;;;;35.95;16.8;;;;;;;4.64;100;95561.33;;;;
2021/11/15 03:28:01;;;;;;;35.95;16.8;;;;;;;4.64;100;95561.33;;;;
2021/11/15 03:29:02;;;;;;;35.95;16.8;;;;;;;4.64;100;95561.33;;;;
2021/11/15 03:30:03;;;;;;;35.95;16.8;;;;;;;4.64;100;95561.33;;;;
2021/11/15 03:31:06;;;;;;;35.2;17.15;;;;;;;4.64;100;95564.54;;;;
2021/11/15 03:32:09;;;;;;;35.2;17.15;;;;;;;4.64;100;95564.54;;;;
2021/11/15 03:33:12;;;;;;;35.2;17.15;;;;;;;4.64;100;95564.54;;;;
2021/11/15 03:34:14;;;;;;;35.2;17.15;;;;;;;4.64;100;95564.54;;;;
2021/11/15 03:35:15;;;;;;;35.2;17.15;;;;;;;4.64;100;95564.54;;;;
2021/11/15 03:36:16;;;;;;;35.2;17.15;;;;;;;4.64;100;95564.54;;;;
2021/11/15 03:37:17;;;;;;;35.2;17.15;;;;;;;4.64;100;95564.54;;;;
2021/11/15 03:38:18;;;;;;;35.2;17.15;;;;;;;4.64;100;95564.54;;;;
2021/11/15 03:39:19;;;;;;;35.2;17.15;;;;;;;4.64;100;95564.54;;;;
2021/11/15 03:40:20;;;;;;;35.2;17.15;;;;;;;4.64;100;95564.54;;;;
2021/11/15 03:41:23;;;;;;;28.3;14.55;;;;;;;4.65;100;95566.18;;;;
2021/11/15 03:42:38;;;;;;;28.3;14.55;;;;;;;4.65;100;95566.18;;;;
2021/11/15 03:43:38;;;;;;;28.3;14.55;;;;;;;4.65;100;95566.18;;;;
2021/11/15 03:44:39;;;;;;;28.3;14.55;;;;;;;4.65;100;95566.18;;;;
2021/11/15 03:45:40;;;;;;;28.3;14.55;;;;;;;4.65;100;95566.18;;;;
2021/11/15 03:46:41;;;;;;;28.3;14.55;;;;;;;4.65;100;95566.18;;;;
2021/11/15 03:47:43;;;;;;;28.3;14.55;;;;;;;4.65;100;95566.18;;;;
2021/11/15 03:48:45;;;;;;;28.3;14.55;;;;;;;4.65;100;95566.18;;;;
2021/11/15 03:49:47;;;;;;;28.3;14.55;;;;;;;4.65;100;95566.18;;;;
2021/11/15 03:50:48;;;;;;;28.3;14.55;;;;;;;4.65;100;95566.18;;;;
2021/11/15 03:51:49;;;;;;;30.1;14.8;;;;;;;4.59;100;95565.52;;;;
2021/11/15 03:52:49;;;;;;;30.1;14.8;;;;;;;4.59;100;95565.52;;;;
2021/11/15 03:53:52;;;;;;;30.1;14.8;;;;;;;4.59;100;95565.52;;;;
2021/11/15 03:54:54;;;;;;;30.1;14.8;;;;;;;4.59;100;95565.52;;;;
2021/11/15 03:55:55;;;;;;;30.1;14.8;;;;;;;4.59;100;95565.52;;;;
2021/11/15 03:56:56;;;;;;;30.1;14.8;;;;;;;4.59;100;95565.52;;;;
2021/11/15 03:57:56;;;;;;;30.1;14.8;;;;;;;4.59;100;95565.52;;;;
2021/11/15 03:58:57;;;;;;;30.1;14.8;;;;;;;4.59;100;95565.52;;;;
2021/11/15 03:59:59;;;;;;;30.1;14.8;;;;;;;4.59;100;95565.52;;;;
2021/11/15 04:01:02;;;;;;;30.1;14.8;;;;;;;4.59;100;95565.52;;;;
2021/11/15 04:02:03;;;;;;;30.1;14.8;;;;;;;4.59;100;95565.52;;;;
2021/11/15 04:03:04;;;;;;;30.9;14.85;;;;;;;4.61;100;95564.9;;;;
2021/11/15 04:04:09;;;;;;;30.9;14.85;;;;;;;4.61;100;95564.9;;;;
2021/11/15 04:05:10;;;;;;;30.9;14.85;;;;;;;4.61;100;95564.9;;;;
2021/11/15 04:06:12;;;;;;;30.9;14.85;;;;;;;4.61;100;95564.9;;;;
2021/11/15 04:07:26;;;;;;;30.9;14.85;;;;;;;4.61;100;95564.9;;;;
2021/11/15 04:08:28;;;;;;;30.9;14.85;;;;;;;4.61;100;95564.9;;;;
2021/11/15 04:09:29;;;;;;;30.9;14.85;;;;;;;4.61;100;95564.9;;;;
2021/11/15 04:10:30;;;;;;;30.9;14.85;;;;;;;4.61;100;95564.9;;;;
2021/11/15 04:11:36;;;;;;;30.9;14.85;;;;;;;4.61;100;95564.9;;;;
2021/11/15 04:12:37;;;;;;;30.9;14.85;;;;;;;4.61;100;95564.9;;;;
2021/11/15 04:13:39;;;;;;;30.35;14.6;;;;;;;4.61;100;95568;;;;
2021/11/15 04:14:41;;;;;;;30.35;14.6;;;;;;;4.61;100;95568;;;;
2021/11/15 04:15:42;;;;;;;30.35;14.6;;;;;;;4.61;100;95568;;;;
2021/11/15 04:16:44;;;;;;;30.35;14.6;;;;;;;4.61;100;95568;;;;
2021/11/15 04:17:45;;;;;;;30.35;14.6;;;;;;;4.61;100;95568;;;;
2021/11/15 04:18:47;;;;;;;30.35;14.6;;;;;;;4.61;100;95568;;;;
2021/11/15 04:19:52;;;;;;;30.35;14.6;;;;;;;4.61;100;95568;;;;
2021/11/15 04:20:53;;;;;;;30.35;14.6;;;;;;;4.61;100;95568;;;;
2021/11/15 04:21:56;;;;;;;30.35;14.6;;;;;;;4.61;100;95568;;;;
2021/11/15 04:22:57;;;;;;;30.35;14.6;;;;;;;4.61;100;95568;;;;
2021/11/15 04:23:58;;;;;;;31.2;14.5;;;;;;;4.61;100;95559.47;;;;
2021/11/15 04:24:59;;;;;;;31.2;14.5;;;;;;;4.61;100;95559.47;;;;
2021/11/15 04:25:59;;;;;;;31.2;14.5;;;;;;;4.61;100;95559.47;;;;
2021/11/15 04:27:00;;;;;;;31.2;14.5;;;;;;;4.61;100;95559.47;;;;
2021/11/15 04:28:01;;;;;;;31.2;14.5;;;;;;;4.61;100;95559.47;;;;
2021/11/15 04:29:01;;;;;;;31.2;14.5;;;;;;;4.61;100;95559.47;;;;
2021/11/15 04:30:02;;;;;;;31.2;14.5;;;;;;;4.61;100;95559.47;;;;
2021/11/15 04:31:07;;;;;;;31.2;14.5;;;;;;;4.61;100;95559.47;;;;
2021/11/15 04:32:07;;;;;;;31.2;14.5;;;;;;;4.61;100;95559.47;;;;
2021/11/15 04:33:10;;;;;;;31.2;14.5;;;;;;;4.61;100;95559.47;;;;
2021/11/15 04:34:10;;;;;;;31.2;14.5;;;;;;;4.61;100;95559.47;;;;
2021/11/15 04:35:11;;;;;;;27.6;13.3;;;;;;;4.61;100;95539.92;;;;
2021/11/15 04:36:14;;;;;;;27.6;13.3;;;;;;;4.61;100;95539.92;;;;
2021/11/15 04:37:15;;;;;;;27.6;13.3;;;;;;;4.61;100;95539.92;;;;
2021/11/15 04:38:16;;;;;;;27.6;13.3;;;;;;;4.61;100;95539.92;;;;
2021/11/15 04:39:16;;;;;;;27.6;13.3;;;;;;;4.61;100;95539.92;;;;
2021/11/15 04:40:17;;;;;;;27.6;13.3;;;;;;;4.61;100;95539.92;;;;
2021/11/15 04:41:18;;;;;;;27.6;13.3;;;;;;;4.61;100;95539.92;;;;
2021/11/15 04:42:19;;;;;;;27.6;13.3;;;;;;;4.61;100;95539.92;;;;
2021/11/15 04:43:19;;;;;;;27.6;13.3;;;;;;;4.61;100;95539.92;;;;
2021/11/15 04:44:20;;;;;;;27.6;13.3;;;;;;;4.61;100;95539.92;;;;
2021/11/15 04:45:21;;;;;;;35.90001;14.6;;;;;;;4.6;100;95529.35;;;;
2021/11/15 04:46:21;;;;;;;35.90001;14.6;;;;;;;4.6;100;95529.35;;;;
2021/11/15 04:47:22;;;;;;;35.90001;14.6;;;;;;;4.6;100;95529.35;;;;
2021/11/15 04:48:24;;;;;;;35.90001;14.6;;;;;;;4.6;100;95529.35;;;;
2021/11/15 04:49:25;;;;;;;35.90001;14.6;;;;;;;4.6;100;95529.35;;;;
2021/11/15 04:50:26;;;;;;;35.90001;14.6;;;;;;;4.6;100;95529.35;;;;
2021/11/15 04:51:26;;;;;;;35.90001;14.6;;;;;;;4.6;100;95529.35;;;;
2021/11/15 04:52:27;;;;;;;35.90001;14.6;;;;;;;4.6;100;95529.35;;;;
2021/11/15 04:53:28;;;;;;;35.90001;14.6;;;;;;;4.6;100;95529.35;;;;
2021/11/15 04:54:28;;;;;;;35.90001;14.6;;;;;;;4.6;100;95529.35;;;;
2021/11/15 04:55:29;;;;;;;35.90001;14.6;;;;;;;4.6;100;95529.35;;;;
2021/11/15 04:56:30;;;;;;;28.4;13.45;;;;;;;4.6;100;95544.05;;;;
2021/11/15 04:57:31;;;;;;;28.4;13.45;;;;;;;4.6;100;95544.05;;;;
2021/11/15 04:58:32;;;;;;;28.4;13.45;;;;;;;4.6;100;95544.05;;;;
2021/11/15 04:59:34;;;;;;;28.4;13.45;;;;;;;4.6;100;95544.05;;;;
2021/11/15 05:00:34;;;;;;;28.4;13.45;;;;;;;4.6;100;95544.05;;;;
2021/11/15 05:01:37;;;;;;;28.4;13.45;;;;;;;4.6;100;95544.05;;;;
2021/11/15 05:02:37;;;;;;;28.4;13.45;;;;;;;4.6;100;95544.05;;;;
2021/11/15 05:03:38;;;;;;;28.4;13.45;;;;;;;4.6;100;95544.05;;;;
2021/11/15 05:04:39;;;;;;;28.4;13.45;;;;;;;4.6;100;95544.05;;;;
2021/11/15 05:05:39;;;;;;;28.4;13.45;;;;;;;4.6;100;95544.05;;;;
2021/11/15 05:06:40;;;;;;;29.05;13.1;;;;;;;4.56;100;95539.17;;;;
2021/11/15 05:07:41;;;;;;;29.05;13.1;;;;;;;4.56;100;95539.17;;;;
2021/11/15 05:08:42;;;;;;;29.05;13.1;;;;;;;4.56;100;95539.17;;;;
2021/11/15 05:09:43;;;;;;;29.05;13.1;;;;;;;4.56;100;95539.17;;;;
2021/11/15 05:10:43;;;;;;;29.05;13.1;;;;;;;4.56;100;95539.17;;;;
2021/11/15 05:11:44;;;;;;;29.05;13.1;;;;;;;4.56;100;95539.17;;;;
2021/11/15 05:12:44;;;;;;;29.05;13.1;;;;;;;4.56;100;95539.17;;;;
2021/11/15 05:13:45;;;;;;;29.05;13.1;;;;;;;4.56;100;95539.17;;;;
2021/11/15 05:14:46;;;;;;;29.05;13.1;;;;;;;4.56;100;95539.17;;;;
2021/11/15 05:15:46;;;;;;;29.05;13.1;;;;;;;4.56;100;95539.17;;;;
2021/11/15 05:16:48;;;;;;;29.05;13.1;;;;;;;4.56;100;95539.17;;;;
2021/11/15 05:17:48;;;;;;;28;13.35;;;;;;;4.52;100;95540.66;;;;
2021/11/15 05:18:50;;;;;;;28;13.35;;;;;;;4.52;100;95540.66;;;;
2021/11/15 05:19:51;;;;;;;28;13.35;;;;;;;4.52;100;95540.66;;;;
2021/11/15 05:20:52;;;;;;;28;13.35;;;;;;;4.52;100;95540.66;;;;
2021/11/15 05:21:52;;;;;;;28;13.35;;;;;;;4.52;100;95540.66;;;;
2021/11/15 05:22:53;;;;;;;28;13.35;;;;;;;4.52;100;95540.66;;;;
2021/11/15 05:23:54;;;;;;;28;13.35;;;;;;;4.52;100;95540.66;;;;
2021/11/15 05:24:54;;;;;;;28;13.35;;;;;;;4.52;100;95540.66;;;;
2021/11/15 05:25:55;;;;;;;28;13.35;;;;;;;4.52;100;95540.66;;;;
2021/11/15 05:26:56;;;;;;;28;13.35;;;;;;;4.52;100;95540.66;;;;
2021/11/15 05:27:57;;;;;;;30.3;13.15;;;;;;;4.49;100;95541.05;;;;
2021/11/15 05:28:58;;;;;;;30.3;13.15;;;;;;;4.49;100;95541.05;;;;
2021/11/15 05:29:59;;;;;;;30.3;13.15;;;;;;;4.49;100;95541.05;;;;
2021/11/15 05:31:00;;;;;;;30.3;13.15;;;;;;;4.49;100;95541.05;;;;
2021/11/15 05:32:01;;;;;;;30.3;13.15;;;;;;;4.49;100;95541.05;;;;
2021/11/15 05:33:02;;;;;;;30.3;13.15;;;;;;;4.49;100;95541.05;;;;
2021/11/15 05:34:03;;;;;;;30.3;13.15;;;;;;;4.49;100;95541.05;;;;
2021/11/15 05:35:04;;;;;;;30.3;13.15;;;;;;;4.49;100;95541.05;;;;
2021/11/15 05:36:07;;;;;;;30.3;13.15;;;;;;;4.49;100;95541.05;;;;
2021/11/15 05:37:07;;;;;;;30.3;13.15;;;;;;;4.49;100;95541.05;;;;
2021/11/15 05:38:08;;;;;;;30.3;13.15;;;;;;;4.49;100;95541.05;;;;
2021/11/15 05:39:09;;;;;;;30.3;13.15;;;;;;;4.49;100;95541.05;;;;
2021/11/15 05:40:09;;;;;;;30.3;13.15;;;;;;;4.49;100;95541.05;;;;
2021/11/15 05:41:12;;;;;;;30.3;13.15;;;;;;;4.49;100;95541.05;;;;
2021/11/15 05:42:12;;;;;;;30.3;13.15;;;;;;;4.49;100;95541.05;;;;
2021/11/15 05:43:13;;;;;;;30.3;13.15;;;;;;;4.49;100;95541.05;;;;
2021/11/15 05:44:14;;;;;;;30.3;13.15;;;;;;;4.49;100;95541.05;;;;
2021/11/15 05:45:15;;;;;;;30.3;13.15;;;;;;;4.49;100;95541.05;;;;
2021/11/15 05:46:16;;;;;;;30.3;13.15;;;;;;;4.49;100;95541.05;;;;
2021/11/15 05:47:17;;;;;;;30.3;13.15;;;;;;;4.49;100;95541.05;;;;
2021/11/15 05:48:18;;;;;;;30.3;13.15;;;;;;;4.49;100;95541.05;;;;
2021/11/15 05:49:19;;;;;;;29.3;13.3;;;;;;;4.38;100;95560.27;;;;
2021/11/15 05:50:20;;;;;;;29.3;13.3;;;;;;;4.38;100;95560.27;;;;
2021/11/15 05:51:22;;;;;;;29.3;13.3;;;;;;;4.38;100;95560.27;;;;
2021/11/15 05:52:23;;;;;;;29.3;13.3;;;;;;;4.38;100;95560.27;;;;
2021/11/15 05:53:24;;;;;;;29.3;13.3;;;;;;;4.38;100;95560.27;;;;
2021/11/15 05:54:25;;;;;;;29.3;13.3;;;;;;;4.38;100;95560.27;;;;
2021/11/15 05:55:26;;;;;;;29.3;13.3;;;;;;;4.38;100;95560.27;;;;
2021/11/15 05:56:27;;;;;;;29.3;13.3;;;;;;;4.38;100;95560.27;;;;
2021/11/15 05:57:28;;;;;;;29.3;13.3;;;;;;;4.38;100;95560.27;;;;
2021/11/15 05:58:29;;;;;;;29.3;13.3;;;;;;;4.38;100;95560.27;;;;
2021/11/15 05:59:29;;;;;;;29.3;13.3;;;;;;;4.38;100;95560.27;;;;
2021/11/15 06:00:30;;;;;;;27.9;12.2;;;;;;;4.31;100;95576.25;;;;
2021/11/15 06:01:31;;;;;;;27.9;12.2;;;;;;;4.31;100;95576.25;;;;
2021/11/15 06:02:31;;;;;;;27.9;12.2;;;;;;;4.31;100;95576.25;;;;
2021/11/15 06:03:32;;;;;;;27.9;12.2;;;;;;;4.31;100;95576.25;;;;
2021/11/15 06:04:33;;;;;;;27.9;12.2;;;;;;;4.31;100;95576.25;;;;
2021/11/15 06:05:33;;;;;;;27.9;12.2;;;;;;;4.31;100;95576.25;;;;
2021/11/15 06:06:34;;;;;;;27.9;12.2;;;;;;;4.31;100;95576.25;;;;
2021/11/15 06:07:35;;;;;;;27.9;12.2;;;;;;;4.31;100;95576.25;;;;
2021/11/15 06:08:35;;;;;;;27.9;12.2;;;;;;;4.31;100;95576.25;;;;
2021/11/15 06:09:36;;;;;;;27.9;12.2;;;;;;;4.31;100;95576.25;;;;
2021/11/15 06:10:37;;;;;;;26.85;13.1;;;;;;;4.29;100;95579.21;;;;
2021/11/15 06:11:37;;;;;;;26.85;13.1;;;;;;;4.29;100;95579.21;;;;
2021/11/15 06:12:38;;;;;;;26.85;13.1;;;;;;;4.29;100;95579.21;;;;
2021/11/15 06:13:39;;;;;;;26.85;13.1;;;;;;;4.29;100;95579.21;;;;
2021/11/15 06:14:40;;;;;;;26.85;13.1;;;;;;;4.29;100;95579.21;;;;